Time;durP1;ratioP1;P1;durP2;ratioP2;P2;SDS_P1;SDS_P2;PMS_P1;PMS_P2;Temp;Humidity;BMP_temperature;BMP_pressure;BME280_temperature;BME280_humidity;BME280_pressure;Samples;Min_cycle;Max_cycle;Signal;HPM_P1;HPM_P2
2021/06/17 00:01:03;;;;;;;13.85;10.20;;;20.70;99.90;;;;;;5108371;27;20020;-45
2021/06/17 00:03:29;;;;;;;11.48;10.35;;;20.70;99.90;;;;;;5108988;28;20023;-47
2021/06/17 00:05:54;;;;;;;13.40;10.70;;;20.70;99.90;;;;;;5108968;28;20393;-45
2021/06/17 00:08:20;;;;;;;14.13;11.15;;;20.70;99.90;;;;;;5109103;28;20027;-45
2021/06/17 00:10:48;;;;;;;12.73;11.02;;;20.60;99.90;;;;;;5108230;28;20035;-44
2021/06/17 00:13:20;;;;;;;11.93;10.73;;;20.60;99.90;;;;;;5107657;28;20511;-44
2021/06/17 00:15:47;;;;;;;13.00;9.55;;;20.60;99.90;;;;;;5103446;28;20028;-44
2021/06/17 00:18:14;;;;;;;12.75;10.75;;;20.60;99.90;;;;;;5116688;27;20035;-45
2021/06/17 00:20:40;;;;;;;17.30;11.45;;;20.60;99.90;;;;;;5110693;27;20034;-45
2021/06/17 00:23:07;;;;;;;13.80;11.50;;;20.50;99.90;;;;;;5117837;28;20097;-45
2021/06/17 00:25:33;;;;;;;13.13;10.60;;;20.50;99.90;;;;;;5130248;27;20031;-45
2021/06/17 00:27:59;;;;;;;13.30;11.48;;;20.40;99.90;;;;;;5112368;28;20511;-45
2021/06/17 00:30:25;;;;;;;14.60;11.38;;;20.50;99.90;;;;;;5108755;27;20085;-44
2021/06/17 00:32:51;;;;;;;14.23;10.75;;;20.50;99.90;;;;;;5108098;27;20395;-46
2021/06/17 00:35:18;;;;;;;12.23;10.93;;;20.40;99.90;;;;;;5123235;27;20472;-47
2021/06/17 00:37:44;;;;;;;11.80;10.60;;;20.40;99.90;;;;;;5114221;28;20055;-44
2021/06/17 00:40:12;;;;;;;13.68;11.38;;;20.40;99.90;;;;;;5114901;28;20073;-44
2021/06/17 00:42:40;;;;;;;18.60;11.38;;;20.40;99.90;;;;;;5115452;27;20512;-45
2021/06/17 00:45:11;;;;;;;12.85;11.18;;;20.40;99.90;;;;;;5114350;27;20106;-47
2021/06/17 00:47:37;;;;;;;12.63;10.90;;;20.40;99.90;;;;;;5118257;27;20015;-44
2021/06/17 00:50:05;;;;;;;15.20;11.07;;;20.40;99.90;;;;;;5108799;27;20070;-44
2021/06/17 00:52:31;;;;;;;15.68;11.15;;;20.30;99.90;;;;;;5094927;28;20170;-44
2021/06/17 00:54:58;;;;;;;14.05;11.88;;;20.30;99.90;;;;;;5101448;28;20532;-46
2021/06/17 00:57:24;;;;;;;15.50;11.85;;;20.20;99.90;;;;;;5115224;27;20012;-46
2021/06/17 00:59:49;;;;;;;14.88;12.07;;;20.20;99.90;;;;;;5113360;27;20031;-45
2021/06/17 01:02:15;;;;;;;15.85;11.60;;;20.20;99.90;;;;;;5114426;28;20027;-46
2021/06/17 01:04:41;;;;;;;20.98;13.18;;;20.20;99.90;;;;;;5115500;28;20064;-45
2021/06/17 01:07:07;;;;;;;13.85;12.07;;;20.20;99.90;;;;;;5095748;27;20400;-45
2021/06/17 01:10:04;;;;;;;16.10;12.65;;;20.10;99.90;;;;;;5094343;28;20082;-44
2021/06/17 01:12:40;;;;;;;17.77;12.70;;;20.10;99.90;;;;;;5090555;27;20078;-45
2021/06/17 01:15:09;;;;;;;15.00;11.43;;;20.10;99.90;;;;;;5113926;28;20054;-45
2021/06/17 01:17:39;;;;;;;13.70;11.55;;;20.00;99.90;;;;;;5107612;28;20016;-44
2021/06/17 01:20:18;;;;;;;15.88;12.43;;;20.00;99.90;;;;;;5114829;27;20065;-45
2021/06/17 01:23:08;;;;;;;16.10;12.63;;;20.00;99.90;;;;;;5110198;27;20191;-45
2021/06/17 01:25:51;;;;;;;18.88;11.50;;;20.00;99.90;;;;;;5079141;28;20101;-45
2021/06/17 01:28:19;;;;;;;15.45;12.07;;;19.90;99.90;;;;;;5114476;28;20186;-45
2021/06/17 01:31:12;;;;;;;25.70;13.40;;;19.80;99.90;;;;;;5105507;28;20058;-44
2021/06/17 01:33:42;;;;;;;15.55;12.90;;;19.80;99.90;;;;;;5093611;28;20050;-45
2021/06/17 01:36:15;;;;;;;20.60;13.00;;;19.70;99.90;;;;;;5101939;28;20125;-45
2021/06/17 01:38:41;;;;;;;13.18;11.80;;;19.70;99.90;;;;;;5105807;28;20101;-45
2021/06/17 01:41:07;;;;;;;16.13;12.13;;;19.70;99.90;;;;;;5108009;27;20032;-44
2021/06/17 01:43:34;;;;;;;15.70;12.55;;;19.60;99.90;;;;;;5109931;28;20072;-44
2021/06/17 01:46:01;;;;;;;14.38;11.98;;;19.60;99.90;;;;;;5111114;28;20019;-44
2021/06/17 01:48:28;;;;;;;19.85;13.50;;;19.50;99.90;;;;;;5111576;27;20011;-45
2021/06/17 01:50:56;;;;;;;13.77;11.27;;;19.50;99.90;;;;;;5117965;27;20027;-45
2021/06/17 01:53:23;;;;;;;13.80;11.75;;;19.50;99.90;;;;;;5111484;28;20242;-45
2021/06/17 01:55:51;;;;;;;17.45;12.38;;;19.40;99.90;;;;;;5099251;28;20570;-45
2021/06/17 01:58:19;;;;;;;13.90;12.55;;;19.40;99.90;;;;;;5112058;27;20529;-44
2021/06/17 02:00:47;;;;;;;16.27;13.20;;;19.40;99.90;;;;;;5118369;27;20020;-44
2021/06/17 02:03:15;;;;;;;18.15;13.52;;;19.40;99.90;;;;;;5111658;27;20043;-45
2021/06/17 02:05:42;;;;;;;19.70;14.27;;;19.30;99.90;;;;;;5122571;27;20494;-45
2021/06/17 02:08:08;;;;;;;16.48;13.07;;;19.40;99.90;;;;;;5109803;28;20027;-45
2021/06/17 02:10:36;;;;;;;18.73;13.23;;;19.40;99.90;;;;;;5110410;28;20031;-46
2021/06/17 02:13:03;;;;;;;16.80;12.57;;;19.40;99.90;;;;;;5111292;28;20050;-45
2021/06/17 02:15:30;;;;;;;18.88;13.15;;;19.40;99.90;;;;;;5108475;28;20556;-45
2021/06/17 02:17:56;;;;;;;16.35;13.35;;;19.40;99.90;;;;;;5116989;27;20027;-44
2021/06/17 02:20:23;;;;;;;16.48;11.90;;;19.40;99.90;;;;;;5102156;28;20447;-44
2021/06/17 02:22:52;;;;;;;15.07;12.95;;;19.40;99.90;;;;;;5093897;28;20022;-44
2021/06/17 02:25:20;;;;;;;15.75;13.05;;;19.30;99.90;;;;;;5102983;28;20024;-45
2021/06/17 02:27:52;;;;;;;16.83;12.50;;;19.30;99.90;;;;;;5108191;28;20023;-44
2021/06/17 02:30:19;;;;;;;13.82;12.52;;;19.30;99.90;;;;;;5102242;28;20047;-45
2021/06/17 02:32:49;;;;;;;13.48;12.07;;;19.20;99.90;;;;;;5098318;28;20064;-45
2021/06/17 02:35:20;;;;;;;15.00;12.13;;;19.20;99.90;;;;;;5105799;27;20028;-44
2021/06/17 02:37:49;;;;;;;;;;;19.10;99.90;;;;;;5101427;27;20028;-44
2021/06/17 02:40:17;;;;;;;12.45;11.15;;;19.10;99.90;;;;;;5103331;28;19908;-45
2021/06/17 02:42:42;;;;;;;15.02;12.57;;;19.10;99.90;;;;;;5100710;28;20023;-44
2021/06/17 02:45:09;;;;;;;16.10;12.65;;;19.10;99.90;;;;;;5108931;27;20024;-45
2021/06/17 02:47:34;;;;;;;14.00;12.60;;;19.10;99.90;;;;;;5121857;27;20015;-44
2021/06/17 02:50:00;;;;;;;14.32;12.63;;;19.00;99.90;;;;;;5127862;27;20377;-47
2021/06/17 02:52:25;;;;;;;15.48;13.45;;;19.00;99.90;;;;;;5109646;28;20029;-46
2021/06/17 02:54:51;;;;;;;14.50;12.63;;;18.90;99.90;;;;;;5102179;28;20024;-43
2021/06/17 02:57:38;;;;;;;15.07;11.98;;;18.90;99.90;;;;;;5102816;28;20083;-46
2021/06/17 03:00:17;;;;;;;14.85;13.23;;;18.90;99.90;;;;;;5100548;28;20090;-45
2021/06/17 03:02:49;;;;;;;16.02;13.45;;;18.80;99.90;;;;;;5102439;28;20099;-43
2021/06/17 03:05:46;;;;;;;16.55;14.70;;;18.80;99.90;;;;;;5097679;28;20077;-44
2021/06/17 03:08:35;;;;;;;15.65;14.02;;;18.80;99.90;;;;;;5066178;28;20036;-44
2021/06/17 03:11:05;;;;;;;16.23;14.13;;;18.80;99.90;;;;;;5098195;28;20199;-44
2021/06/17 03:13:33;;;;;;;21.73;15.10;;;18.80;99.90;;;;;;5091683;28;20161;-45
2021/06/17 03:16:00;;;;;;;18.42;14.18;;;18.70;99.90;;;;;;5092795;27;20318;-44
2021/06/17 03:18:27;;;;;;;22.73;14.07;;;18.70;99.90;;;;;;5116212;27;20032;-47
2021/06/17 03:20:55;;;;;;;18.45;14.27;;;18.70;99.90;;;;;;5110639;27;20439;-45
2021/06/17 03:23:23;;;;;;;14.88;13.38;;;18.70;99.90;;;;;;5101368;28;20015;-46
2021/06/17 03:25:52;;;;;;;18.08;14.45;;;18.70;99.90;;;;;;5098486;28;20376;-45
2021/06/17 03:28:20;;;;;;;18.10;14.93;;;18.70;99.90;;;;;;5099660;27;20011;-46
2021/06/17 03:30:48;;;;;;;17.25;14.40;;;18.70;99.90;;;;;;5099815;27;20032;-44
2021/06/17 03:33:16;;;;;;;16.15;14.35;;;18.70;99.90;;;;;;5099552;27;21039;-45
2021/06/17 03:35:42;;;;;;;18.35;13.95;;;18.60;99.90;;;;;;5102025;27;20027;-45
2021/06/17 03:38:10;;;;;;;16.85;13.68;;;18.60;99.90;;;;;;5098071;27;20034;-45
2021/06/17 03:40:37;;;;;;;18.77;14.75;;;18.60;99.90;;;;;;5092636;27;20034;-45
2021/06/17 03:43:03;;;;;;;19.25;13.85;;;18.60;99.90;;;;;;5098257;27;20016;-45
2021/06/17 03:45:30;;;;;;;17.83;13.82;;;18.60;99.90;;;;;;5093393;27;20008;-45
2021/06/17 03:47:57;;;;;;;16.33;14.60;;;18.60;99.90;;;;;;5094690;27;20016;-45
2021/06/17 03:50:24;;;;;;;17.58;13.98;;;18.60;99.90;;;;;;5093048;27;20019;-44
2021/06/17 03:52:52;;;;;;;16.38;14.73;;;18.70;99.90;;;;;;5091783;28;20035;-45
2021/06/17 03:55:19;;;;;;;19.08;15.80;;;18.60;99.90;;;;;;5095097;27;20027;-45
2021/06/17 03:57:48;;;;;;;20.63;14.82;;;18.70;99.90;;;;;;5093057;27;20028;-45
2021/06/17 04:00:15;;;;;;;19.73;14.55;;;18.70;99.90;;;;;;5096806;27;20118;-43
2021/06/17 04:02:41;;;;;;;18.85;15.65;;;18.70;99.90;;;;;;5097438;27;20020;-45
2021/06/17 04:05:07;;;;;;;16.38;14.40;;;18.70;99.90;;;;;;5098680;27;20462;-43
2021/06/17 04:07:36;;;;;;;16.65;14.15;;;18.70;99.90;;;;;;5096598;27;20120;-44
2021/06/17 04:10:04;;;;;;;19.73;15.98;;;18.70;99.90;;;;;;5107954;27;20061;-44
2021/06/17 04:12:31;;;;;;;21.00;14.88;;;18.80;99.90;;;;;;5120962;27;20019;-43
2021/06/17 04:14:59;;;;;;;20.45;16.80;;;18.80;99.90;;;;;;5116500;27;20021;-43
2021/06/17 04:17:32;;;;;;;19.33;16.30;;;18.80;99.90;;;;;;5108654;28;20099;-43
2021/06/17 04:20:03;;;;;;;21.75;16.60;;;18.70;99.90;;;;;;5107368;27;20039;-43
2021/06/17 04:22:30;;;;;;;19.83;15.52;;;18.80;99.90;;;;;;5109061;28;21716;-43
2021/06/17 04:25:06;;;;;;;16.67;14.95;;;18.80;99.90;;;;;;5107655;28;20023;-43
2021/06/17 04:27:33;;;;;;;18.52;16.52;;;18.80;99.90;;;;;;5102429;28;20023;-43
2021/06/17 04:30:00;;;;;;;17.27;15.50;;;18.80;99.90;;;;;;5124730;27;20024;-44
2021/06/17 04:32:26;;;;;;;17.60;14.82;;;18.90;99.90;;;;;;5108835;28;20059;-45
2021/06/17 04:34:52;;;;;;;16.88;15.13;;;18.90;99.90;;;;;;5106723;28;20024;-43
2021/06/17 04:37:23;;;;;;;20.90;18.05;;;18.90;99.90;;;;;;5109663;28;20023;-46
2021/06/17 04:39:50;;;;;;;21.55;17.30;;;19.00;99.90;;;;;;5087111;28;20035;-46
2021/06/17 04:42:17;;;;;;;18.42;16.63;;;19.00;99.90;;;;;;5088757;28;20077;-43
2021/06/17 04:44:44;;;;;;;18.88;16.88;;;19.00;99.90;;;;;;5104031;28;20098;-46
2021/06/17 04:47:10;;;;;;;18.42;16.52;;;19.10;99.90;;;;;;5101305;28;20019;-44
2021/06/17 04:49:38;;;;;;;20.23;17.17;;;19.10;99.90;;;;;;5113306;28;20031;-44
2021/06/17 04:52:07;;;;;;;21.77;17.50;;;19.20;99.90;;;;;;5113084;27;20357;-44
2021/06/17 04:54:34;;;;;;;21.52;16.95;;;19.30;99.90;;;;;;5103574;28;20038;-44
2021/06/17 04:57:00;;;;;;;21.80;17.48;;;19.40;99.90;;;;;;5098011;28;20036;-44
2021/06/17 04:59:25;;;;;;;19.80;17.73;;;19.40;99.90;;;;;;5097914;28;20044;-44
2021/06/17 05:01:51;;;;;;;20.27;16.92;;;19.50;99.90;;;;;;5090127;28;20027;-44
2021/06/17 05:04:18;;;;;;;20.13;16.65;;;19.50;99.90;;;;;;5090878;28;20019;-44
2021/06/17 05:06:55;;;;;;;20.02;16.50;;;19.60;99.90;;;;;;5117542;28;20509;-44
2021/06/17 05:12:04;;;;;;;19.30;16.90;;;19.70;99.90;;;;;;5110701;28;20047;-44
2021/06/17 05:14:30;;;;;;;23.38;17.40;;;19.70;99.90;;;;;;5110882;28;20012;-43
2021/06/17 05:16:55;;;;;;;22.40;17.38;;;19.80;99.90;;;;;;5112708;28;20059;-44
2021/06/17 05:19:21;;;;;;;18.83;16.02;;;19.90;99.90;;;;;;5101855;28;20024;-46
2021/06/17 05:21:46;;;;;;;20.05;15.70;;;19.90;99.90;;;;;;5107301;28;20104;-47
2021/06/17 05:24:12;;;;;;;18.27;16.40;;;20.00;99.90;;;;;;5111997;28;20526;-44
2021/06/17 05:26:37;;;;;;;18.55;16.55;;;20.00;99.90;;;;;;5101947;28;20023;-44
2021/06/17 05:29:04;;;;;;;18.00;15.73;;;20.00;99.90;;;;;;5111537;28;20110;-44
2021/06/17 05:31:30;;;;;;;23.92;17.45;;;20.10;99.90;;;;;;5099085;28;20438;-44
2021/06/17 05:33:56;;;;;;;19.42;17.42;;;20.20;99.90;;;;;;5111647;28;20063;-44
2021/06/17 05:36:21;;;;;;;23.67;17.20;;;20.30;99.90;;;;;;5107579;28;20461;-44
2021/06/17 05:38:48;;;;;;;19.05;16.60;;;20.40;99.90;;;;;;5111671;28;20035;-44
2021/06/17 05:41:14;;;;;;;18.02;15.60;;;20.40;99.90;;;;;;5107989;28;20397;-44
2021/06/17 05:43:40;;;;;;;20.98;17.80;;;20.50;99.90;;;;;;5108729;28;20024;-44
2021/06/17 05:46:05;;;;;;;20.23;14.95;;;20.60;99.90;;;;;;5111966;27;20085;-44
2021/06/17 05:48:32;;;;;;;21.80;16.30;;;20.70;99.90;;;;;;5111608;28;20016;-47
2021/06/17 05:50:58;;;;;;;17.70;15.15;;;20.80;99.90;;;;;;5104459;28;20024;-43
2021/06/17 05:53:24;;;;;;;17.85;15.27;;;20.80;99.90;;;;;;5123268;27;20076;-44
2021/06/17 05:55:49;;;;;;;22.10;15.93;;;20.90;99.90;;;;;;5100328;27;20032;-44
2021/06/17 05:58:15;;;;;;;19.02;15.90;;;21.10;99.90;;;;;;5099180;28;20135;-43
2021/06/17 06:00:41;;;;;;;19.02;15.45;;;21.10;99.90;;;;;;5107215;28;20030;-44
2021/06/17 06:03:07;;;;;;;17.70;15.13;;;21.20;99.90;;;;;;5109826;28;20031;-44
2021/06/17 06:05:33;;;;;;;19.10;15.55;;;21.30;99.90;;;;;;5105589;28;20434;-44
2021/06/17 06:08:08;;;;;;;19.40;15.00;;;21.40;99.90;;;;;;5107291;28;20019;-43
2021/06/17 06:10:34;;;;;;;20.13;16.25;;;21.40;99.90;;;;;;5109741;28;20039;-44
2021/06/17 06:12:59;;;;;;;17.75;15.63;;;21.60;99.90;;;;;;5111027;28;20073;-44
2021/06/17 06:15:32;;;;;;;19.85;15.50;;;21.70;99.90;;;;;;5108928;28;20143;-44
2021/06/17 06:18:02;;;;;;;20.25;15.10;;;21.70;99.90;;;;;;5098415;28;20051;-44
2021/06/17 06:20:28;;;;;;;17.73;15.10;;;21.80;99.90;;;;;;5107174;28;20076;-44
2021/06/17 06:22:53;;;;;;;17.30;14.85;;;21.90;99.90;;;;;;5106325;28;20032;-44
2021/06/17 06:25:18;;;;;;;18.70;15.45;;;22.00;99.90;;;;;;5109064;28;20035;-44
2021/06/17 06:27:44;;;;;;;18.25;14.82;;;22.10;99.90;;;;;;5110322;28;20106;-44
2021/06/17 06:30:10;;;;;;;17.95;14.95;;;22.30;99.90;;;;;;5104058;28;20439;-44
2021/06/17 06:32:36;;;;;;;18.05;14.73;;;22.30;99.90;;;;;;5110381;28;20044;-44
2021/06/17 06:35:03;;;;;;;16.35;14.05;;;22.50;99.90;;;;;;5110270;28;20481;-43
2021/06/17 06:37:28;;;;;;;20.33;14.32;;;22.60;99.90;;;;;;5110487;28;20024;-43
2021/06/17 06:39:54;;;;;;;16.33;13.60;;;22.70;99.90;;;;;;5108880;28;20431;-44
2021/06/17 06:42:19;;;;;;;18.95;15.05;;;22.80;99.90;;;;;;5110399;28;20023;-45
2021/06/17 06:44:45;;;;;;;16.33;13.93;;;23.00;99.90;;;;;;5102469;28;20024;-45
2021/06/17 06:47:10;;;;;;;20.67;14.32;;;23.10;99.90;;;;;;5093918;27;20029;-44
2021/06/17 06:49:36;;;;;;;15.73;13.57;;;23.30;99.90;;;;;;5121781;27;20034;-44
2021/06/17 06:52:02;;;;;;;19.60;14.90;;;23.40;99.90;;;;;;5125430;27;20062;-44
2021/06/17 06:54:28;;;;;;;18.13;14.27;;;23.50;99.90;;;;;;5103421;28;20054;-44
2021/06/17 06:56:54;;;;;;;16.92;14.45;;;23.70;99.90;;;;;;5110087;28;20028;-44
2021/06/17 06:59:19;;;;;;;19.50;14.38;;;23.80;99.90;;;;;;5103608;28;20031;-43
2021/06/17 07:01:46;;;;;;;22.13;13.60;;;23.90;99.90;;;;;;5108846;28;20512;-45
2021/06/17 07:04:12;;;;;;;14.82;12.38;;;24.00;99.90;;;;;;5110236;28;20077;-44
2021/06/17 07:06:39;;;;;;;21.13;13.63;;;24.20;99.90;;;;;;5108733;28;20495;-45
2021/06/17 07:09:05;;;;;;;16.75;12.55;;;24.30;99.90;;;;;;5109881;28;20500;-44
2021/06/17 07:11:31;;;;;;;13.63;11.65;;;24.40;99.90;;;;;;5108086;28;20027;-44
2021/06/17 07:13:57;;;;;;;12.95;11.65;;;24.50;99.90;;;;;;5109732;28;20026;-46
2021/06/17 07:16:24;;;;;;;15.05;12.20;;;24.70;99.90;;;;;;5097376;28;20036;-47
2021/06/17 07:18:50;;;;;;;15.68;12.40;;;24.70;99.90;;;;;;5104792;28;20031;-46
2021/06/17 07:21:17;;;;;;;14.65;11.48;;;24.90;99.90;;;;;;5098376;27;20101;-44
2021/06/17 07:23:49;;;;;;;14.82;11.40;;;25.00;99.90;;;;;;5089555;28;20022;-44
2021/06/17 07:26:15;;;;;;;14.25;11.88;;;25.20;99.90;;;;;;5094993;28;20111;-46
2021/06/17 07:28:40;;;;;;;15.38;11.27;;;25.30;99.90;;;;;;5093902;28;20099;-47
2021/06/17 07:31:06;;;;;;;13.85;12.20;;;25.40;99.90;;;;;;5109941;27;20111;-44
2021/06/17 07:33:31;;;;;;;12.45;11.05;;;25.50;99.90;;;;;;5112468;27;20399;-44
2021/06/17 07:35:57;;;;;;;11.95;10.27;;;25.60;99.90;;;;;;5121807;27;20024;-44
2021/06/17 07:38:22;;;;;;;14.65;10.60;;;25.80;99.90;;;;;;5121510;27;20033;-44
2021/06/17 07:40:48;;;;;;;14.25;11.18;;;26.00;99.90;;;;;;5128217;27;20027;-43
2021/06/17 07:43:13;;;;;;;15.68;10.93;;;26.20;99.90;;;;;;5106002;27;20036;-44
2021/06/17 07:45:39;;;;;;;12.98;10.90;;;26.40;99.90;;;;;;5103554;28;20032;-45
2021/06/17 07:48:10;;;;;;;13.15;11.75;;;26.60;99.90;;;;;;5100399;28;20459;-46
2021/06/17 07:50:35;;;;;;;13.20;11.80;;;26.70;99.90;;;;;;5122382;27;20110;-47
2021/06/17 07:53:01;;;;;;;21.20;11.13;;;26.90;99.90;;;;;;5129691;27;20114;-47
2021/06/17 07:55:26;;;;;;;15.05;10.55;;;27.00;99.90;;;;;;5113109;27;20063;-45
2021/06/17 07:57:52;;;;;;;11.07;9.98;;;27.10;99.80;;;;;;5107834;28;20023;-45
2021/06/17 08:00:18;;;;;;;13.63;10.27;;;27.30;99.90;;;;;;5104196;27;20031;-47
2021/06/17 08:02:43;;;;;;;12.27;9.68;;;27.50;99.60;;;;;;5107296;28;20023;-45
2021/06/17 08:05:09;;;;;;;10.43;9.43;;;27.60;98.80;;;;;;5105657;28;20038;-45
2021/06/17 08:07:35;;;;;;;11.90;9.70;;;27.90;98.20;;;;;;5088897;28;20024;-45
2021/06/17 08:10:00;;;;;;;15.75;9.23;;;28.30;98.50;;;;;;5088257;28;20031;-46
2021/06/17 08:12:26;;;;;;;11.07;8.18;;;29.10;95.60;;;;;;5087472;28;20081;-45
2021/06/17 08:14:52;;;;;;;10.52;7.32;;;30.10;93.20;;;;;;5088902;28;20024;-45
2021/06/17 08:17:18;;;;;;;13.85;7.63;;;31.90;89.60;;;;;;5094836;28;20631;-43
2021/06/17 08:19:43;;;;;;;9.65;7.00;;;33.00;82.40;;;;;;5109424;27;20106;-45
2021/06/17 08:22:10;;;;;;;8.23;6.15;;;34.40;74.90;;;;;;5117734;27;20055;-45
2021/06/17 08:24:39;;;;;;;8.25;6.00;;;35.90;65.40;;;;;;5123265;27;20023;-45
2021/06/17 08:27:06;;;;;;;6.78;6.10;;;36.40;59.40;;;;;;5106212;28;20028;-45
2021/06/17 08:29:31;;;;;;;10.60;6.32;;;36.00;58.60;;;;;;5106953;28;20570;-45
2021/06/17 08:31:57;;;;;;;10.38;5.97;;;35.70;60.70;;;;;;5105928;28;20035;-43
2021/06/17 08:34:26;;;;;;;10.40;5.80;;;35.80;57.80;;;;;;5108606;28;20027;-43
2021/06/17 08:36:52;;;;;;;7.87;6.03;;;35.80;60.00;;;;;;5107175;28;20023;-46
2021/06/17 08:39:19;;;;;;;7.75;6.68;;;36.80;59.60;;;;;;5107986;28;20057;-46
2021/06/17 08:41:45;;;;;;;6.82;6.13;;;37.70;56.60;;;;;;5099921;28;20031;-44
2021/06/17 08:44:10;;;;;;;6.88;5.47;;;38.50;52.90;;;;;;5107126;28;20049;-45
2021/06/17 08:46:38;;;;;;;5.88;5.30;;;38.10;52.10;;;;;;5105529;28;20485;-47
2021/06/17 08:49:03;;;;;;;5.32;4.80;;;38.20;51.90;;;;;;5112307;28;20016;-44
2021/06/17 08:51:31;;;;;;;5.82;4.40;;;38.60;47.50;;;;;;5105005;27;20027;-45
2021/06/17 08:53:57;;;;;;;8.55;5.45;;;38.70;47.80;;;;;;5110933;28;20361;-44
2021/06/17 08:56:22;;;;;;;5.80;5.15;;;38.70;47.30;;;;;;5103697;28;20181;-47
2021/06/17 08:58:49;;;;;;;5.00;4.50;;;37.90;46.80;;;;;;5111809;28;20103;-44
2021/06/17 09:01:15;;;;;;;6.00;4.85;;;38.70;48.00;;;;;;5099698;28;20290;-44
2021/06/17 09:03:42;;;;;;;5.40;4.93;;;39.10;46.70;;;;;;5112131;28;20047;-44
2021/06/17 09:06:08;;;;;;;5.15;4.65;;;39.20;46.60;;;;;;5109001;28;20027;-46
2021/06/17 09:08:35;;;;;;;7.13;4.63;;;39.30;43.60;;;;;;5110081;28;20028;-45
2021/06/17 09:11:05;;;;;;;4.55;4.00;;;39.80;44.30;;;;;;5108986;28;20063;-44
2021/06/17 09:13:34;;;;;;;5.93;4.20;;;39.10;42.00;;;;;;5090502;28;20028;-45
2021/06/17 09:16:02;;;;;;;5.20;3.92;;;39.30;43.90;;;;;;5091106;28;20024;-45
2021/06/17 09:18:32;;;;;;;4.30;4.00;;;39.10;42.90;;;;;;5091657;28;20034;-46
2021/06/17 09:21:04;;;;;;;6.00;3.90;;;38.50;42.50;;;;;;5104372;27;20076;-44
2021/06/17 09:23:35;;;;;;;5.70;3.83;;;38.00;44.00;;;;;;5119197;27;20023;-48
2021/06/17 09:26:22;;;;;;;5.57;3.55;;;39.00;43.00;;;;;;5095232;28;20381;-44
2021/06/17 09:31:44;;;;;;;5.50;3.70;;;40.30;39.50;;;;;;5105914;28;20096;-47
2021/06/17 09:34:11;;;;;;;6.95;3.65;;;40.90;40.40;;;;;;5109652;28;20392;-47
2021/06/17 09:36:39;;;;;;;4.93;3.47;;;40.10;38.70;;;;;;5103510;28;20100;-48
2021/06/17 09:39:09;;;;;;;;;;;40.40;38.00;;;;;;5110646;28;20032;-46
2021/06/17 09:41:50;;;;;;;5.50;3.20;;;39.60;38.70;;;;;;5106916;28;19958;-46
2021/06/17 09:44:38;;;;;;;2.70;2.42;;;39.50;37.50;;;;;;5121930;27;20016;-45
2021/06/17 09:47:10;;;;;;;5.35;2.92;;;39.50;37.60;;;;;;5111110;27;20031;-46
2021/06/17 09:49:38;;;;;;;8.15;3.45;;;39.90;37.90;;;;;;5105242;28;20020;-44
2021/06/17 09:52:04;;;;;;;3.70;3.40;;;40.60;37.90;;;;;;5108717;28;20028;-45
2021/06/17 09:54:31;;;;;;;4.88;3.40;;;41.50;37.10;;;;;;5111183;28;20031;-45
2021/06/17 09:57:02;;;;;;;3.80;3.35;;;42.70;36.60;;;;;;5106127;28;20030;-45
2021/06/17 09:59:34;;;;;;;3.78;3.30;;;42.80;36.10;;;;;;5111351;27;20047;-45
2021/06/17 10:01:59;;;;;;;4.18;3.30;;;43.30;35.90;;;;;;5107438;27;20575;-45
2021/06/17 10:04:26;;;;;;;8.52;3.00;;;42.90;34.60;;;;;;5111812;28;20107;-46
2021/06/17 10:06:53;;;;;;;4.78;2.72;;;43.20;34.30;;;;;;5111451;28;20043;-44
2021/06/17 10:09:18;;;;;;;3.67;3.05;;;41.00;34.70;;;;;;5109535;28;20030;-44
2021/06/17 10:11:45;;;;;;;4.18;3.30;;;41.30;33.20;;;;;;5105353;28;20114;-44
2021/06/17 10:14:13;;;;;;;3.92;3.05;;;40.20;34.80;;;;;;5101046;28;20399;-45
2021/06/17 10:16:42;;;;;;;3.83;3.15;;;39.70;35.20;;;;;;5102153;28;20073;-44
2021/06/17 10:19:08;;;;;;;4.15;3.40;;;40.70;37.00;;;;;;5100367;28;20116;-45
2021/06/17 10:21:34;;;;;;;5.50;3.20;;;40.70;34.70;;;;;;5100837;28;20023;-46
2021/06/17 10:24:02;;;;;;;6.82;3.38;;;39.70;37.20;;;;;;5103033;27;20027;-45
2021/06/17 10:26:31;;;;;;;3.03;2.70;;;41.40;35.40;;;;;;5107903;28;20027;-46
2021/06/17 10:28:57;;;;;;;6.63;3.40;;;42.10;34.60;;;;;;5110951;27;20055;-46
2021/06/17 10:31:42;;;;;;;3.80;2.70;;;43.20;33.60;;;;;;5096362;28;20028;-45
2021/06/17 10:34:22;;;;;;;3.70;3.22;;;43.20;33.60;;;;;;5110864;28;20041;-46
2021/06/17 10:37:12;;;;;;;3.33;3.03;;;43.30;34.60;;;;;;5103084;28;20034;-45
2021/06/17 10:39:47;;;;;;;3.40;3.10;;;44.00;35.00;;;;;;5099282;28;20039;-45
2021/06/17 10:42:31;;;;;;;6.72;3.22;;;44.00;32.80;;;;;;5098356;28;20119;-46
2021/06/17 10:45:26;;;;;;;5.57;2.92;;;42.40;35.40;;;;;;5097050;28;20551;-46
2021/06/17 10:47:54;;;;;;;3.10;2.78;;;42.00;33.20;;;;;;5091653;27;20036;-45
2021/06/17 10:50:29;;;;;;;4.00;3.22;;;44.30;32.50;;;;;;5101957;28;20126;-44
2021/06/17 10:53:16;;;;;;;7.55;2.97;;;44.60;32.70;;;;;;5106775;28;20445;-45
2021/06/17 10:55:56;;;;;;;3.38;2.50;;;44.10;32.60;;;;;;5097902;28;20250;-45
2021/06/17 10:58:40;;;;;;;5.35;2.55;;;43.70;32.40;;;;;;5104845;28;20024;-44
2021/06/17 11:01:28;;;;;;;5.47;2.78;;;44.90;32.00;;;;;;5110770;27;20200;-45
2021/06/17 11:04:13;;;;;;;2.90;2.63;;;45.70;31.50;;;;;;5112869;27;20089;-45
2021/06/17 11:06:51;;;;;;;4.18;3.05;;;45.80;31.00;;;;;;5105433;28;20103;-45
2021/06/17 11:09:39;;;;;;;3.53;2.85;;;45.50;31.80;;;;;;5106535;27;20023;-44
2021/06/17 11:12:13;;;;;;;4.63;2.85;;;45.40;31.60;;;;;;5121862;27;20065;-45
2021/06/17 11:14:41;;;;;;;4.15;3.03;;;45.10;32.20;;;;;;5115399;27;20114;-45
2021/06/17 11:17:33;;;;;;;4.53;2.80;;;45.20;31.90;;;;;;5103997;28;20068;-44
2021/06/17 11:20:06;;;;;;;3.40;3.10;;;45.00;32.20;;;;;;5102291;28;20054;-46
2021/06/17 11:22:47;;;;;;;4.20;3.08;;;43.20;32.10;;;;;;5102124;28;20030;-45
2021/06/17 11:25:16;;;;;;;3.83;2.80;;;43.00;34.00;;;;;;5107913;28;20586;-46
2021/06/17 11:27:59;;;;;;;3.72;2.78;;;41.80;33.80;;;;;;5098400;28;20023;-46
2021/06/17 11:30:41;;;;;;;4.30;2.50;;;42.00;33.10;;;;;;5100964;28;20015;-45
2021/06/17 11:33:19;;;;;;;8.90;2.70;;;41.80;33.60;;;;;;5113131;27;20209;-45
2021/06/17 11:35:49;;;;;;;2.90;2.45;;;42.30;31.30;;;;;;5115796;27;20015;-44
2021/06/17 11:38:32;;;;;;;4.22;2.95;;;41.40;31.30;;;;;;5095726;27;20031;-46
2021/06/17 11:40:59;;;;;;;4.95;2.30;;;40.00;32.40;;;;;;5101339;27;20032;-45
2021/06/17 11:43:27;;;;;;;2.97;2.75;;;39.70;33.60;;;;;;5088855;28;20016;-45
2021/06/17 11:45:54;;;;;;;3.42;2.47;;;40.50;32.70;;;;;;5091877;28;20016;-44
2021/06/17 11:48:23;;;;;;;4.00;3.15;;;40.30;33.40;;;;;;5102561;27;20104;-44
2021/06/17 11:50:50;;;;;;;5.50;2.92;;;40.20;33.40;;;;;;5111085;27;20750;-45
2021/06/17 11:53:21;;;;;;;3.08;2.78;;;40.50;33.00;;;;;;5108162;28;20070;-44
2021/06/17 11:55:47;;;;;;;3.65;2.35;;;39.40;33.50;;;;;;5104781;28;20018;-45
2021/06/17 11:58:13;;;;;;;3.33;2.58;;;38.00;35.00;;;;;;5107721;28;20039;-46
2021/06/17 12:00:39;;;;;;;6.78;2.88;;;38.40;35.20;;;;;;5108533;27;20023;-46
2021/06/17 12:03:23;;;;;;;3.90;2.88;;;37.90;35.20;;;;;;5105168;27;20098;-47
2021/06/17 12:05:49;;;;;;;4.88;2.95;;;37.30;35.00;;;;;;5108188;28;20012;-51
2021/06/17 12:08:15;;;;;;;3.65;3.05;;;36.90;35.90;;;;;;5107758;28;20090;-43
2021/06/17 12:10:47;;;;;;;5.13;3.13;;;36.60;36.80;;;;;;5108373;28;20058;-45
2021/06/17 12:13:13;;;;;;;3.22;2.70;;;36.70;36.70;;;;;;5107578;28;20392;-47
2021/06/17 12:15:41;;;;;;;4.82;3.03;;;36.20;38.10;;;;;;5102571;28;21449;-45
2021/06/17 12:18:21;;;;;;;4.28;3.47;;;36.30;37.00;;;;;;5101191;28;20031;-47
2021/06/17 12:20:48;;;;;;;4.50;3.35;;;36.70;37.10;;;;;;5113557;27;20060;-44
2021/06/17 12:23:23;;;;;;;7.90;3.13;;;36.70;37.10;;;;;;5104945;27;20031;-46
2021/06/17 12:26:03;;;;;;;4.32;2.67;;;36.40;36.50;;;;;;5109041;28;20020;-45
2021/06/17 12:28:29;;;;;;;6.63;2.83;;;36.40;37.20;;;;;;5094809;28;20072;-45
2021/06/17 12:30:57;;;;;;;3.78;2.80;;;36.80;37.30;;;;;;5095634;28;20028;-44
2021/06/17 12:33:28;;;;;;;4.07;3.10;;;37.00;36.80;;;;;;5090000;28;20012;-46
2021/06/17 12:36:02;;;;;;;5.72;3.20;;;36.60;37.00;;;;;;5113893;28;20057;-45
2021/06/17 12:38:34;;;;;;;2.80;2.50;;;36.30;36.60;;;;;;5114351;28;20422;-45
2021/06/17 12:41:19;;;;;;;3.03;2.80;;;36.90;36.90;;;;;;5106737;28;20043;-48
2021/06/17 12:43:53;;;;;;;5.30;3.22;;;36.60;37.00;;;;;;5105269;28;20050;-46
2021/06/17 12:46:24;;;;;;;7.50;3.25;;;36.70;37.80;;;;;;5096129;28;20028;-45
2021/06/17 12:49:12;;;;;;;3.10;2.88;;;36.00;36.90;;;;;;5116060;28;20381;-46
2021/06/17 12:54:30;;;;;;;3.47;2.75;;;36.10;36.00;;;;;;5108699;28;20038;-44